AZU4089 SBRF-SBSP
Flight info
| Callsign | AZU4089 |
|---|---|
| Flight time | N/A |
| Altitude | 38000 |
| Route | GAVAK UZ30 ENTIT |
| Aircraft | A20N/M-SDE2E3FGHIRWXY/LB1 |
Departure
| Time | N/A |
|---|---|
| Airport | Recife/Guararapes - Gilberto Freyre International Airport (SBRF) |
Arrival
| Time | 2026-05-06 16:30 |
|---|---|
| Airport | Congonhas–Deputado Freitas Nobre Airport (SBSP) |
| Time | Latitude | Longitude | Altitude | Speed | Heading |
|---|---|---|---|---|---|
| 2026-05-06 14:54 | -15.96040 | -41.89394 | 39712 ft | 384 kts | 217° |
| 2026-05-06 14:54 | -16.00246 | -41.92825 | 39715 ft | 384 kts | 217° |
| 2026-05-06 14:55 | -16.04451 | -41.96258 | 39714 ft | 384 kts | 217° |
| 2026-05-06 14:55 | -16.08661 | -41.99695 | 39704 ft | 383 kts | 217° |
| 2026-05-06 14:56 | -16.12835 | -42.03106 | 39710 ft | 381 kts | 217° |
| 2026-05-06 14:56 | -16.17017 | -42.06526 | 39709 ft | 383 kts | 217° |
| 2026-05-06 14:57 | -16.21193 | -42.09943 | 39707 ft | 382 kts | 217° |
| 2026-05-06 14:57 | -16.25375 | -42.13365 | 39704 ft | 382 kts | 217° |
| 2026-05-06 14:58 | -16.29556 | -42.16789 | 39707 ft | 383 kts | 217° |
| 2026-05-06 14:58 | -16.33741 | -42.20218 | 39696 ft | 382 kts | 217° |
| 2026-05-06 14:59 | -16.37900 | -42.23629 | 39701 ft | 380 kts | 217° |
| 2026-05-06 14:59 | -16.42058 | -42.27038 | 39703 ft | 381 kts | 217° |
| 2026-05-06 15:00 | -16.46188 | -42.30429 | 39706 ft | 380 kts | 217° |
| 2026-05-06 15:00 | -16.50356 | -42.33851 | 39703 ft | 382 kts | 217° |
| 2026-05-06 15:01 | -16.54525 | -42.37276 | 39702 ft | 382 kts | 217° |
| 2026-05-06 15:01 | -16.58699 | -42.40706 | 39778 ft | 383 kts | 217° |
| 2026-05-06 15:02 | -16.62831 | -42.44118 | 39803 ft | 378 kts | 217° |
| 2026-05-06 15:02 | -16.66957 | -42.47526 | 39802 ft | 379 kts | 217° |
| 2026-05-06 15:03 | -16.71098 | -42.50935 | 39803 ft | 380 kts | 217° |
| 2026-05-06 15:03 | -16.75243 | -42.54350 | 39809 ft | 379 kts | 217° |
| 2026-05-06 15:04 | -16.79375 | -42.57757 | 39807 ft | 378 kts | 217° |
| 2026-05-06 15:04 | -16.83508 | -42.61168 | 39805 ft | 378 kts | 217° |
| 2026-05-06 15:05 | -16.87621 | -42.64564 | 39809 ft | 376 kts | 217° |
| 2026-05-06 15:05 | -16.91733 | -42.67960 | 39811 ft | 378 kts | 217° |
| 2026-05-06 15:06 | -16.95850 | -42.71362 | 39812 ft | 377 kts | 217° |
| 2026-05-06 15:06 | -16.99965 | -42.74765 | 39815 ft | 377 kts | 217° |
| 2026-05-06 15:07 | -17.04077 | -42.78167 | 39811 ft | 378 kts | 217° |
| 2026-05-06 15:07 | -17.08194 | -42.81576 | 39811 ft | 377 kts | 217° |
| 2026-05-06 15:08 | -17.12287 | -42.84968 | 39819 ft | 375 kts | 216° |
| 2026-05-06 15:08 | -17.16376 | -42.88358 | 39813 ft | 375 kts | 216° |
| 2026-05-06 15:09 | -17.20471 | -42.91753 | 39815 ft | 376 kts | 216° |
| 2026-05-06 15:09 | -17.24560 | -42.95146 | 39813 ft | 375 kts | 216° |
| 2026-05-06 15:10 | -17.28644 | -42.98539 | 39816 ft | 375 kts | 217° |
| 2026-05-06 15:10 | -17.32734 | -43.01937 | 39823 ft | 374 kts | 216° |
| 2026-05-06 15:11 | -17.36814 | -43.05328 | 39812 ft | 374 kts | 216° |
| 2026-05-06 15:11 | -17.40887 | -43.08716 | 39815 ft | 374 kts | 216° |
| 2026-05-06 15:12 | -17.44933 | -43.12084 | 39814 ft | 374 kts | 216° |
| 2026-05-06 15:12 | -17.49000 | -43.15471 | 39816 ft | 373 kts | 216° |
| 2026-05-06 15:13 | -17.53068 | -43.18861 | 39817 ft | 373 kts | 216° |
| 2026-05-06 15:13 | -17.57141 | -43.22256 | 39818 ft | 374 kts | 216° |
| 2026-05-06 15:14 | -17.61214 | -43.25654 | 39819 ft | 374 kts | 216° |
| 2026-05-06 15:14 | -17.65283 | -43.29050 | 39815 ft | 373 kts | 216° |
| 2026-05-06 15:15 | -17.69351 | -43.32447 | 39817 ft | 374 kts | 216° |
| 2026-05-06 15:15 | -17.73426 | -43.35852 | 39817 ft | 374 kts | 216° |
| 2026-05-06 15:16 | -17.77500 | -43.39259 | 39817 ft | 373 kts | 216° |
| 2026-05-06 15:16 | -17.81565 | -43.42659 | 39818 ft | 374 kts | 216° |
| 2026-05-06 15:17 | -17.85623 | -43.46058 | 39819 ft | 371 kts | 216° |
| 2026-05-06 15:17 | -17.89668 | -43.49445 | 39822 ft | 373 kts | 216° |
| 2026-05-06 15:18 | -17.93715 | -43.52836 | 39828 ft | 372 kts | 216° |
| 2026-05-06 15:18 | -17.97763 | -43.56231 | 39827 ft | 372 kts | 216° |
| 2026-05-06 15:19 | -18.01809 | -43.59627 | 39831 ft | 373 kts | 216° |
| 2026-05-06 15:19 | -18.05863 | -43.63031 | 39832 ft | 372 kts | 216° |
| 2026-05-06 15:20 | -18.09886 | -43.66412 | 39835 ft | 370 kts | 216° |
| 2026-05-06 15:20 | -18.13904 | -43.69791 | 39827 ft | 370 kts | 216° |
| 2026-05-06 15:21 | -18.17923 | -43.73174 | 39834 ft | 370 kts | 216° |
| 2026-05-06 15:21 | -18.21915 | -43.76537 | 39822 ft | 369 kts | 216° |
| 2026-05-06 15:22 | -18.25929 | -43.79919 | 39831 ft | 371 kts | 216° |
| 2026-05-06 15:22 | -18.29943 | -43.83307 | 39809 ft | 369 kts | 216° |
| 2026-05-06 15:23 | -18.33956 | -43.86694 | 39820 ft | 370 kts | 216° |
| 2026-05-06 15:23 | -18.37967 | -43.90077 | 39815 ft | 369 kts | 216° |
| 2026-05-06 15:24 | -18.41981 | -43.93463 | 39814 ft | 370 kts | 216° |
| 2026-05-06 15:24 | -18.45995 | -43.96855 | 39808 ft | 369 kts | 216° |
| 2026-05-06 15:25 | -18.50002 | -44.00240 | 39805 ft | 369 kts | 216° |
| 2026-05-06 15:25 | -18.54013 | -44.03630 | 39795 ft | 369 kts | 216° |
| 2026-05-06 15:26 | -18.58018 | -44.07019 | 39793 ft | 369 kts | 216° |
| 2026-05-06 15:26 | -18.62018 | -44.10406 | 39794 ft | 369 kts | 216° |
| 2026-05-06 15:27 | -18.66003 | -44.13782 | 39796 ft | 369 kts | 216° |
| 2026-05-06 15:27 | -18.70002 | -44.17172 | 39791 ft | 369 kts | 216° |
| 2026-05-06 15:28 | -18.74004 | -44.20566 | 39790 ft | 369 kts | 216° |
| 2026-05-06 15:28 | -18.78001 | -44.23958 | 39791 ft | 369 kts | 216° |
| 2026-05-06 15:29 | -18.82003 | -44.27359 | 39792 ft | 369 kts | 216° |
| 2026-05-06 15:29 | -18.85321 | -44.30186 | 39793 ft | 369 kts | 216° |
| 2026-05-06 15:30 | -18.89320 | -44.33592 | 39792 ft | 369 kts | 216° |
| 2026-05-06 15:30 | -18.93967 | -44.37553 | 39805 ft | 370 kts | 216° |
| 2026-05-06 15:31 | -18.97313 | -44.40407 | 39793 ft | 369 kts | 216° |
| 2026-05-06 15:31 | -19.01306 | -44.43813 | 39792 ft | 370 kts | 216° |
| 2026-05-06 15:32 | -19.07301 | -44.48928 | 39788 ft | 369 kts | 217° |
| 2026-05-06 15:32 | -19.11293 | -44.52338 | 39787 ft | 369 kts | 217° |
| 2026-05-06 15:33 | -19.15287 | -44.55751 | 39790 ft | 368 kts | 216° |
| 2026-05-06 15:33 | -19.19268 | -44.59155 | 39790 ft | 368 kts | 216° |
| 2026-05-06 15:34 | -19.23223 | -44.62537 | 39786 ft | 368 kts | 217° |
| 2026-05-06 15:34 | -19.27216 | -44.65955 | 39789 ft | 369 kts | 217° |
| 2026-05-06 15:35 | -19.31201 | -44.69368 | 39789 ft | 369 kts | 217° |
| 2026-05-06 15:35 | -19.35186 | -44.72783 | 39789 ft | 368 kts | 217° |
| 2026-05-06 15:36 | -19.39162 | -44.76191 | 39790 ft | 368 kts | 216° |
| 2026-05-06 15:36 | -19.43144 | -44.79607 | 39790 ft | 368 kts | 217° |
| 2026-05-06 15:37 | -19.47127 | -44.83025 | 39790 ft | 369 kts | 217° |
| 2026-05-06 15:37 | -19.51111 | -44.86447 | 39790 ft | 368 kts | 217° |
| 2026-05-06 15:38 | -19.55082 | -44.89863 | 39786 ft | 368 kts | 217° |
| 2026-05-06 15:38 | -19.59056 | -44.93293 | 39792 ft | 368 kts | 217° |
| 2026-05-06 15:39 | -19.63021 | -44.96716 | 39795 ft | 367 kts | 217° |
| 2026-05-06 15:39 | -19.66989 | -45.00144 | 39795 ft | 367 kts | 217° |
| 2026-05-06 15:40 | -19.70932 | -45.03553 | 39792 ft | 369 kts | 217° |
| 2026-05-06 15:40 | -19.74898 | -45.06983 | 39798 ft | 366 kts | 217° |
| 2026-05-06 15:41 | -19.78874 | -45.10424 | 39792 ft | 367 kts | 217° |
| 2026-05-06 15:41 | -19.82805 | -45.13829 | 39790 ft | 367 kts | 217° |
| 2026-05-06 15:42 | -19.86757 | -45.17254 | 39799 ft | 367 kts | 217° |
| 2026-05-06 15:42 | -19.90719 | -45.20688 | 39795 ft | 368 kts | 217° |
| 2026-05-06 15:43 | -19.94682 | -45.24125 | 39799 ft | 368 kts | 217° |
| 2026-05-06 15:43 | -19.98641 | -45.27564 | 39802 ft | 368 kts | 217° |
| 2026-05-06 15:44 | -20.02602 | -45.31004 | 39799 ft | 368 kts | 217° |
| 2026-05-06 15:44 | -20.06557 | -45.34442 | 39807 ft | 367 kts | 217° |
| 2026-05-06 15:45 | -20.10504 | -45.37875 | 39800 ft | 366 kts | 217° |
| 2026-05-06 15:45 | -20.14454 | -45.41312 | 39797 ft | 367 kts | 217° |
| 2026-05-06 15:46 | -20.18409 | -45.44757 | 39797 ft | 367 kts | 217° |
| 2026-05-06 15:46 | -20.22358 | -45.48201 | 39799 ft | 367 kts | 217° |
| 2026-05-06 15:47 | -20.26305 | -45.51644 | 39803 ft | 367 kts | 217° |
| 2026-05-06 15:47 | -20.30254 | -45.55090 | 39797 ft | 367 kts | 217° |
| 2026-05-06 15:48 | -20.34204 | -45.58540 | 40623 ft | 369 kts | 219° |
| 2026-05-06 15:48 | -20.36091 | -45.60191 | 40575 ft | 330 kts | 217° |
| 2026-05-06 15:48 | -20.37804 | -45.61698 | 41506 ft | 310 kts | 218° |
| 2026-05-06 15:49 | -20.39445 | -45.63146 | 41803 ft | 305 kts | 218° |
| 2026-05-06 15:49 | -20.41092 | -45.64601 | 41066 ft | 312 kts | 217° |
| 2026-05-06 15:49 | -20.42977 | -45.66199 | 37998 ft | 381 kts | 214° |
| 2026-05-06 15:49 | -20.45203 | -45.67751 | 37571 ft | 373 kts | 208° |
| 2026-05-06 15:50 | -20.47310 | -45.69260 | 37759 ft | 361 kts | 218° |
| 2026-05-06 15:50 | -20.49156 | -45.71068 | 38157 ft | 358 kts | 220° |
| 2026-05-06 15:50 | -20.50947 | -45.72892 | 38559 ft | 354 kts | 220° |
| 2026-05-06 15:50 | -20.52748 | -45.74646 | 38949 ft | 348 kts | 218° |
| 2026-05-06 15:51 | -20.54569 | -45.76332 | 39292 ft | 343 kts | 218° |
| 2026-05-06 15:51 | -20.56373 | -45.77949 | 39638 ft | 337 kts | 217° |
| 2026-05-06 15:51 | -20.58148 | -45.79516 | 39801 ft | 337 kts | 217° |
| 2026-05-06 15:51 | -20.59968 | -45.81112 | 39806 ft | 340 kts | 217° |
| 2026-05-06 15:52 | -20.63663 | -45.84352 | 39806 ft | 347 kts | 217° |
| 2026-05-06 15:52 | -20.67437 | -45.87670 | 39807 ft | 356 kts | 217° |
| 2026-05-06 15:53 | -20.71301 | -45.91071 | 39810 ft | 364 kts | 217° |
| 2026-05-06 15:53 | -20.75226 | -45.94524 | 39810 ft | 365 kts | 217° |
| 2026-05-06 15:54 | -20.79147 | -45.97977 | 39808 ft | 365 kts | 218° |
| 2026-05-06 15:54 | -20.83066 | -46.01430 | 39813 ft | 365 kts | 218° |
| 2026-05-06 15:55 | -20.86988 | -46.04888 | 39804 ft | 365 kts | 218° |
| 2026-05-06 15:55 | -20.90903 | -46.08344 | 39805 ft | 365 kts | 217° |
| 2026-05-06 15:56 | -20.94848 | -46.11775 | 39803 ft | 365 kts | 215° |
| 2026-05-06 15:56 | -20.99184 | -46.14574 | 39808 ft | 365 kts | 206° |
| 2026-05-06 15:57 | -21.03926 | -46.16519 | 39805 ft | 366 kts | 200° |
| 2026-05-06 15:57 | -21.08753 | -46.18231 | 39807 ft | 365 kts | 200° |
| 2026-05-06 15:58 | -21.13575 | -46.19951 | 39808 ft | 365 kts | 200° |
| 2026-05-06 15:58 | -21.18377 | -46.21645 | 39807 ft | 366 kts | 200° |
| 2026-05-06 15:59 | -21.23263 | -46.23295 | 39806 ft | 365 kts | 200° |
| 2026-05-06 15:59 | -21.28107 | -46.24934 | 39816 ft | 366 kts | 200° |
| 2026-05-06 16:00 | -21.32924 | -46.26581 | 39813 ft | 365 kts | 200° |
| 2026-05-06 16:00 | -21.37765 | -46.28227 | 39817 ft | 366 kts | 200° |
| 2026-05-06 16:01 | -21.42619 | -46.29877 | 39815 ft | 366 kts | 200° |
| 2026-05-06 16:01 | -21.47463 | -46.31528 | 39814 ft | 366 kts | 200° |
| 2026-05-06 16:02 | -21.49895 | -46.32359 | 39706 ft | 366 kts | 200° |
| 2026-05-06 16:02 | -21.52316 | -46.33186 | 39478 ft | 365 kts | 200° |
| 2026-05-06 16:02 | -21.54735 | -46.34013 | 39245 ft | 363 kts | 200° |
| 2026-05-06 16:02 | -21.57146 | -46.34837 | 39012 ft | 364 kts | 200° |
| 2026-05-06 16:03 | -21.59553 | -46.35660 | 38783 ft | 363 kts | 200° |
| 2026-05-06 16:03 | -21.61962 | -46.36484 | 38510 ft | 364 kts | 200° |
| 2026-05-06 16:03 | -21.64380 | -46.37313 | 38235 ft | 367 kts | 200° |
| 2026-05-06 16:03 | -21.66820 | -46.38155 | 37971 ft | 369 kts | 200° |
| 2026-05-06 16:04 | -21.69257 | -46.39038 | 37708 ft | 369 kts | 200° |
| 2026-05-06 16:04 | -21.71688 | -46.39940 | 37454 ft | 370 kts | 200° |
| 2026-05-06 16:04 | -21.74098 | -46.40836 | 37197 ft | 373 kts | 200° |
| 2026-05-06 16:04 | -21.76558 | -46.41745 | 36930 ft | 375 kts | 200° |
| 2026-05-06 16:05 | -21.79061 | -46.42668 | 36689 ft | 376 kts | 200° |
| 2026-05-06 16:05 | -21.81509 | -46.43568 | 36439 ft | 377 kts | 200° |
| 2026-05-06 16:05 | -21.83996 | -46.44485 | 36203 ft | 379 kts | 200° |
| 2026-05-06 16:05 | -21.86496 | -46.45405 | 35965 ft | 380 kts | 200° |
| 2026-05-06 16:06 | -21.89000 | -46.46325 | 35726 ft | 381 kts | 200° |
| 2026-05-06 16:06 | -21.91513 | -46.47249 | 35488 ft | 383 kts | 200° |
| 2026-05-06 16:06 | -21.94039 | -46.48180 | 35254 ft | 384 kts | 200° |
| 2026-05-06 16:06 | -21.96579 | -46.49114 | 35014 ft | 386 kts | 199° |
| 2026-05-06 16:07 | -21.99124 | -46.50051 | 34784 ft | 387 kts | 199° |
| 2026-05-06 16:07 | -22.01677 | -46.50991 | 34547 ft | 389 kts | 199° |
| 2026-05-06 16:07 | -22.04244 | -46.51938 | 34318 ft | 390 kts | 199° |
| 2026-05-06 16:07 | -22.06820 | -46.52891 | 34073 ft | 392 kts | 199° |
| 2026-05-06 16:08 | -22.09403 | -46.53844 | 33817 ft | 393 kts | 199° |
| 2026-05-06 16:08 | -22.12000 | -46.54802 | 33556 ft | 395 kts | 199° |
| 2026-05-06 16:08 | -22.14612 | -46.55765 | 33304 ft | 398 kts | 199° |
| 2026-05-06 16:08 | -22.17241 | -46.56735 | 33051 ft | 400 kts | 199° |
| 2026-05-06 16:09 | -22.19872 | -46.57706 | 32529 ft | 401 kts | 199° |
| 2026-05-06 16:09 | -22.22543 | -46.58693 | 31491 ft | 410 kts | 199° |
| 2026-05-06 16:09 | -22.25249 | -46.59693 | 30682 ft | 411 kts | 199° |
| 2026-05-06 16:09 | -22.27969 | -46.60699 | 29837 ft | 413 kts | 199° |
| 2026-05-06 16:10 | -22.30667 | -46.61697 | 29273 ft | 407 kts | 199° |
| 2026-05-06 16:10 | -22.33334 | -46.62684 | 28821 ft | 404 kts | 199° |
| 2026-05-06 16:10 | -22.35987 | -46.63665 | 28227 ft | 401 kts | 199° |
| 2026-05-06 16:10 | -22.38605 | -46.64673 | 27638 ft | 397 kts | 202° |
| 2026-05-06 16:11 | -22.41076 | -46.65970 | 27059 ft | 393 kts | 209° |
| 2026-05-06 16:11 | -22.43353 | -46.67585 | 26481 ft | 391 kts | 216° |
| 2026-05-06 16:11 | -22.45417 | -46.69484 | 25917 ft | 389 kts | 222° |
| 2026-05-06 16:11 | -22.47382 | -46.71482 | 25351 ft | 386 kts | 222° |
| 2026-05-06 16:12 | -22.49342 | -46.73455 | 24773 ft | 384 kts | 222° |
| 2026-05-06 16:12 | -22.51300 | -46.75421 | 24196 ft | 383 kts | 222° |
| 2026-05-06 16:12 | -22.53242 | -46.77375 | 23604 ft | 382 kts | 222° |
| 2026-05-06 16:12 | -22.55178 | -46.79326 | 23074 ft | 378 kts | 222° |
| 2026-05-06 16:13 | -22.57094 | -46.81261 | 22807 ft | 382 kts | 223° |
| 2026-05-06 16:13 | -22.59083 | -46.83272 | 22709 ft | 397 kts | 223° |
| 2026-05-06 16:13 | -22.61076 | -46.85288 | 22561 ft | 396 kts | 223° |
| 2026-05-06 16:13 | -22.63097 | -46.87336 | 22369 ft | 394 kts | 223° |
| 2026-05-06 16:14 | -22.65070 | -46.89336 | 22169 ft | 393 kts | 223° |
| 2026-05-06 16:14 | -22.67120 | -46.91351 | 21966 ft | 392 kts | 219° |
| 2026-05-06 16:14 | -22.69290 | -46.93060 | 21768 ft | 391 kts | 212° |
| 2026-05-06 16:14 | -22.71634 | -46.94638 | 21582 ft | 390 kts | 212° |
| 2026-05-06 16:15 | -22.73895 | -46.96172 | 21398 ft | 389 kts | 212° |
| 2026-05-06 16:15 | -22.76187 | -46.97737 | 21197 ft | 389 kts | 212° |
| 2026-05-06 16:15 | -22.78472 | -46.99298 | 21013 ft | 387 kts | 212° |
| 2026-05-06 16:15 | -22.80753 | -47.00855 | 20823 ft | 387 kts | 212° |
| 2026-05-06 16:16 | -22.83029 | -47.02409 | 20638 ft | 387 kts | 212° |
| 2026-05-06 16:16 | -22.85302 | -47.03961 | 20452 ft | 385 kts | 212° |
| 2026-05-06 16:16 | -22.87570 | -47.05510 | 20305 ft | 384 kts | 212° |
| 2026-05-06 16:16 | -22.89829 | -47.07050 | 20214 ft | 383 kts | 211° |
| 2026-05-06 16:17 | -22.92092 | -47.08582 | 19785 ft | 385 kts | 211° |
| 2026-05-06 16:17 | -22.94387 | -47.10131 | 18973 ft | 392 kts | 211° |
| 2026-05-06 16:17 | -22.96727 | -47.11712 | 18053 ft | 398 kts | 211° |
| 2026-05-06 16:17 | -22.99065 | -47.13293 | 17506 ft | 392 kts | 211° |
| 2026-05-06 16:18 | -23.01462 | -47.14565 | 17170 ft | 378 kts | 197° |
| 2026-05-06 16:18 | -23.03150 | -47.14969 | 16855 ft | 373 kts | 185° |
| 2026-05-06 16:18 | -23.05689 | -47.14863 | 16630 ft | 359 kts | 169° |
| 2026-05-06 16:18 | -23.08082 | -47.14337 | 16480 ft | 343 kts | 168° |
| 2026-05-06 16:19 | -23.10353 | -47.13839 | 16274 ft | 324 kts | 168° |
| 2026-05-06 16:19 | -23.12541 | -47.13361 | 15740 ft | 318 kts | 168° |
| 2026-05-06 16:19 | -23.14677 | -47.12893 | 15099 ft | 317 kts | 168° |
| 2026-05-06 16:19 | -23.16862 | -47.12414 | 14464 ft | 315 kts | 167° |
| 2026-05-06 16:20 | -23.18997 | -47.11944 | 13864 ft | 313 kts | 167° |
| 2026-05-06 16:20 | -23.21117 | -47.11478 | 13267 ft | 307 kts | 167° |
| 2026-05-06 16:20 | -23.23184 | -47.11023 | 12877 ft | 302 kts | 167° |
| 2026-05-06 16:20 | -23.25254 | -47.10566 | 12473 ft | 303 kts | 167° |
| 2026-05-06 16:21 | -23.27330 | -47.10109 | 12141 ft | 305 kts | 167° |
| 2026-05-06 16:21 | -23.29412 | -47.09652 | 11745 ft | 306 kts | 167° |
| 2026-05-06 16:21 | -23.31502 | -47.09195 | 11337 ft | 305 kts | 167° |
| 2026-05-06 16:21 | -23.33580 | -47.08741 | 10943 ft | 304 kts | 167° |
| 2026-05-06 16:22 | -23.35645 | -47.08289 | 10571 ft | 302 kts | 167° |
| 2026-05-06 16:22 | -23.37676 | -47.07844 | 10180 ft | 301 kts | 167° |
| 2026-05-06 16:22 | -23.39730 | -47.07392 | 9778 ft | 300 kts | 166° |
| 2026-05-06 16:22 | -23.41573 | -47.06575 | 9395 ft | 294 kts | 143° |
| 2026-05-06 16:23 | -23.42955 | -47.04983 | 8951 ft | 290 kts | 118° |
| 2026-05-06 16:23 | -23.43648 | -47.02955 | 8556 ft | 285 kts | 104° |
| 2026-05-06 16:23 | -23.44156 | -47.00889 | 8219 ft | 280 kts | 103° |
| 2026-05-06 16:23 | -23.44643 | -46.98849 | 7799 ft | 280 kts | 104° |
| 2026-05-06 16:24 | -23.45144 | -46.96802 | 7384 ft | 280 kts | 104° |
| 2026-05-06 16:24 | -23.45662 | -46.94760 | 7016 ft | 278 kts | 105° |
| 2026-05-06 16:24 | -23.46182 | -46.92732 | 6702 ft | 277 kts | 105° |
| 2026-05-06 16:24 | -23.46704 | -46.90724 | 6332 ft | 275 kts | 105° |
| 2026-05-06 16:25 | -23.47225 | -46.88719 | 5956 ft | 274 kts | 105° |
| 2026-05-06 16:25 | -23.47745 | -46.86722 | 5641 ft | 274 kts | 105° |
| 2026-05-06 16:25 | -23.48256 | -46.84758 | 5484 ft | 266 kts | 105° |
| 2026-05-06 16:25 | -23.48748 | -46.82856 | 5431 ft | 254 kts | 105° |
| 2026-05-06 16:26 | -23.49211 | -46.81058 | 5443 ft | 238 kts | 105° |
| 2026-05-06 16:26 | -23.49644 | -46.79379 | 5425 ft | 228 kts | 105° |
| 2026-05-06 16:26 | -23.50069 | -46.77737 | 5344 ft | 219 kts | 105° |
| 2026-05-06 16:26 | -23.50482 | -46.76148 | 5164 ft | 217 kts | 105° |
| 2026-05-06 16:27 | -23.50900 | -46.74564 | 4944 ft | 216 kts | 110° |
| 2026-05-06 16:27 | -23.51710 | -46.73282 | 4882 ft | 200 kts | 137° |
| 2026-05-06 16:27 | -23.52781 | -46.72445 | 4735 ft | 181 kts | 146° |
| 2026-05-06 16:27 | -23.53820 | -46.71759 | 4490 ft | 167 kts | 147° |
| 2026-05-06 16:28 | -23.54752 | -46.71135 | 4290 ft | 148 kts | 146° |
| 2026-05-06 16:28 | -23.55588 | -46.70555 | 4104 ft | 137 kts | 145° |
| 2026-05-06 16:28 | -23.56390 | -46.70000 | 3961 ft | 137 kts | 145° |
| 2026-05-06 16:28 | -23.57200 | -46.69437 | 3805 ft | 138 kts | 145° |
| 2026-05-06 16:29 | -23.58013 | -46.68874 | 3618 ft | 138 kts | 146° |
| 2026-05-06 16:29 | -23.58815 | -46.68317 | 3450 ft | 138 kts | 146° |
| 2026-05-06 16:29 | -23.59623 | -46.67757 | 3250 ft | 138 kts | 146° |
| 2026-05-06 16:29 | -23.60442 | -46.67188 | 3067 ft | 138 kts | 146° |
| 2026-05-06 16:30 | -23.61265 | -46.66630 | 2861 ft | 141 kts | 146° |
| 2026-05-06 16:30 | -23.61754 | -46.66305 | 2741 ft | 140 kts | 145° |
| 2026-05-06 16:30 | -23.62730 | -46.65590 | 2625 ft | 99 kts | 148° |
| 2026-05-06 16:30 | -23.63046 | -46.65382 | 2634 ft | 37 kts | 160° |
| 2026-05-06 16:31 | -23.63139 | -46.65376 | 2636 ft | 11 kts | 196° |
| 2026-05-06 16:31 | -23.63155 | -46.65385 | 2636 ft | 0 kts | 210° |
| 2026-05-06 16:32 | -23.63162 | -46.65389 | 2636 ft | 3 kts | 208° |
| 2026-05-06 16:32 | -23.63196 | -46.65399 | 2637 ft | 8 kts | 184° |
| 2026-05-06 16:32 | -23.63263 | -46.65373 | 2638 ft | 12 kts | 151° |
| 2026-05-06 16:32 | -23.63345 | -46.65321 | 2640 ft | 15 kts | 148° |
| 2026-05-06 16:33 | -23.63414 | -46.65267 | 2642 ft | 11 kts | 127° |
| 2026-05-06 16:33 | -23.63406 | -46.65189 | 2649 ft | 11 kts | 68° |
| 2026-05-06 16:33 | -23.63443 | -46.65131 | 2647 ft | 11 kts | 178° |
| 2026-05-06 16:34 | -23.63414 | -46.65271 | 2642 ft | 21 kts | 330° |
| 2026-05-06 16:34 | -23.63276 | -46.65365 | 2638 ft | 26 kts | 328° |
| 2026-05-06 16:34 | -23.63132 | -46.65463 | 2634 ft | 24 kts | 327° |
| 2026-05-06 16:34 | -23.62971 | -46.65543 | 2630 ft | 27 kts | 329° |
| 2026-05-06 16:35 | -23.62837 | -46.65674 | 2627 ft | 25 kts | 294° |
| 2026-05-06 16:35 | -23.62735 | -46.65737 | 2625 ft | 17 kts | 314° |
| 2026-05-06 16:35 | -23.62631 | -46.65825 | 2622 ft | 21 kts | 328° |
| 2026-05-06 16:35 | -23.62490 | -46.65921 | 2619 ft | 26 kts | 327° |
| 2026-05-06 16:36 | -23.62419 | -46.65974 | 2618 ft | 8 kts | 313° |
| 2026-05-06 16:36 | -23.62424 | -46.66010 | 2618 ft | 1 kts | 225° |
| 2026-05-06 16:36 | -23.62431 | -46.66023 | 2619 ft | 4 kts | 241° |
| 2026-05-06 16:36 | -23.62432 | -46.66025 | 2619 ft | 0 kts | 241° |